sensor_id;sensor_type;location;lat;lon;timestamp;pressure;altitude;pressure_sealevel;temperature;humidity
47588;BME280;34356;45.788;12.046;2022-09-29T00:00:13;98450.25;;;15.44;46.32
47588;BME280;34356;45.788;12.046;2022-09-29T00:02:40;98447.96;;;15.90;46.42
47588;BME280;34356;45.788;12.046;2022-09-29T00:05:07;98445.17;;;15.41;46.41
47588;BME280;34356;45.788;12.046;2022-09-29T00:07:35;98439.73;;;15.68;46.49
47588;BME280;34356;45.788;12.046;2022-09-29T00:10:02;98435.91;;;15.64;46.55
47588;BME280;34356;45.788;12.046;2022-09-29T00:12:29;98429.57;;;15.94;46.67
47588;BME280;34356;45.788;12.046;2022-09-29T00:14:57;98434.53;;;15.50;46.54
47588;BME280;34356;45.788;12.046;2022-09-29T00:17:24;98437.46;;;15.54;46.51
47588;BME280;34356;45.788;12.046;2022-09-29T00:19:52;98444.76;;;15.80;46.55
47588;BME280;34356;45.788;12.046;2022-09-29T00:22:19;98455.38;;;15.61;46.67
47588;BME280;34356;45.788;12.046;2022-09-29T00:24:47;98459.40;;;15.66;46.61
47588;BME280;34356;45.788;12.046;2022-09-29T00:27:15;98458.83;;;15.69;46.57
47588;BME280;34356;45.788;12.046;2022-09-29T00:29:42;98457.11;;;15.75;46.52
47588;BME280;34356;45.788;12.046;2022-09-29T00:32:10;98454.12;;;15.98;46.55
47588;BME280;34356;45.788;12.046;2022-09-29T00:34:37;98453.80;;;15.75;46.67
47588;BME280;34356;45.788;12.046;2022-09-29T00:37:04;98445.70;;;15.27;46.74
47588;BME280;34356;45.788;12.046;2022-09-29T00:39:32;98448.15;;;15.82;46.72
47588;BME280;34356;45.788;12.046;2022-09-29T00:41:59;98448.19;;;15.32;46.84
47588;BME280;34356;45.788;12.046;2022-09-29T00:45:05;98449.67;;;15.88;46.78
47588;BME280;34356;45.788;12.046;2022-09-29T00:47:40;98448.53;;;15.97;46.66
47588;BME280;34356;45.788;12.046;2022-09-29T00:50:13;98444.58;;;15.54;46.63
47588;BME280;34356;45.788;12.046;2022-09-29T00:52:47;98435.81;;;16.06;46.56
47588;BME280;34356;45.788;12.046;2022-09-29T00:55:19;98430.41;;;16.03;46.63
47588;BME280;34356;45.788;12.046;2022-09-29T00:57:52;98431.36;;;16.03;46.65
47588;BME280;34356;45.788;12.046;2022-09-29T01:00:21;98439.50;;;16.06;46.63
47588;BME280;34356;45.788;12.046;2022-09-29T01:02:52;98442.45;;;16.08;46.72
47588;BME280;34356;45.788;12.046;2022-09-29T01:05:25;98436.61;;;16.12;46.65
47588;BME280;34356;45.788;12.046;2022-09-29T01:07:55;98430.60;;;15.66;46.70
47588;BME280;34356;45.788;12.046;2022-09-29T01:10:22;98429.22;;;16.18;46.67
47588;BME280;34356;45.788;12.046;2022-09-29T01:12:50;98427.13;;;16.19;46.66
47588;BME280;34356;45.788;12.046;2022-09-29T01:15:18;98419.80;;;16.15;46.73
47588;BME280;34356;45.788;12.046;2022-09-29T01:17:47;98409.61;;;16.13;46.77
47588;BME280;34356;45.788;12.046;2022-09-29T01:20:16;98407.20;;;16.12;46.83
47588;BME280;34356;45.788;12.046;2022-09-29T01:23:05;98411.53;;;16.16;46.88
47588;BME280;34356;45.788;12.046;2022-09-29T01:28:21;98420.27;;;16.02;47.15
47588;BME280;34356;45.788;12.046;2022-09-29T01:31:02;98418.41;;;16.17;46.87
47588;BME280;34356;45.788;12.046;2022-09-29T01:33:36;98418.37;;;16.17;46.82
47588;BME280;34356;45.788;12.046;2022-09-29T01:36:12;98420.15;;;15.64;46.98
47588;BME280;34356;45.788;12.046;2022-09-29T01:38:53;98416.88;;;16.10;47.14
47588;BME280;34356;45.788;12.046;2022-09-29T01:41:30;98418.46;;;15.92;47.02
47588;BME280;34356;45.788;12.046;2022-09-29T01:44:04;98414.79;;;15.44;47.05
47588;BME280;34356;45.788;12.046;2022-09-29T01:46:36;98414.54;;;16.15;47.13
47588;BME280;34356;45.788;12.046;2022-09-29T01:49:05;98421.70;;;16.17;47.10
47588;BME280;34356;45.788;12.046;2022-09-29T01:51:39;98425.00;;;16.18;47.04
47588;BME280;34356;45.788;12.046;2022-09-29T01:54:11;98424.33;;;16.21;46.99
47588;BME280;34356;45.788;12.046;2022-09-29T01:56:45;98423.65;;;16.41;47.06
47588;BME280;34356;45.788;12.046;2022-09-29T01:59:21;98426.49;;;16.17;47.08
47588;BME280;34356;45.788;12.046;2022-09-29T02:01:50;98425.01;;;16.37;47.17
47588;BME280;34356;45.788;12.046;2022-09-29T02:04:24;98418.92;;;15.97;47.07
47588;BME280;34356;45.788;12.046;2022-09-29T02:06:56;98413.67;;;16.22;47.08
47588;BME280;34356;45.788;12.046;2022-09-29T02:09:28;98412.36;;;16.05;46.88
47588;BME280;34356;45.788;12.046;2022-09-29T02:11:58;98410.70;;;15.81;47.00
47588;BME280;34356;45.788;12.046;2022-09-29T02:14:29;98411.35;;;16.31;46.97
47588;BME280;34356;45.788;12.046;2022-09-29T02:17:02;98408.52;;;15.82;46.96
47588;BME280;34356;45.788;12.046;2022-09-29T02:19:34;98405.30;;;16.31;46.88
47588;BME280;34356;45.788;12.046;2022-09-29T02:22:03;98405.10;;;15.74;47.06
47588;BME280;34356;45.788;12.046;2022-09-29T02:24:30;98406.97;;;16.17;47.11
47588;BME280;34356;45.788;12.046;2022-09-29T02:26:58;98406.83;;;15.65;47.05
47588;BME280;34356;45.788;12.046;2022-09-29T02:29:25;98404.51;;;15.85;47.21
47588;BME280;34356;45.788;12.046;2022-09-29T02:31:54;98401.42;;;16.00;47.23
47588;BME280;34356;45.788;12.046;2022-09-29T02:34:22;98400.82;;;15.99;47.31
47588;BME280;34356;45.788;12.046;2022-09-29T02:36:57;98400.83;;;16.02;47.26
47588;BME280;34356;45.788;12.046;2022-09-29T02:39:34;98403.95;;;16.05;47.19
47588;BME280;34356;45.788;12.046;2022-09-29T02:42:14;98399.72;;;16.09;47.10
47588;BME280;34356;45.788;12.046;2022-09-29T02:44:59;98403.13;;;16.07;47.02
47588;BME280;34356;45.788;12.046;2022-09-29T02:47:51;98408.15;;;15.98;47.14
47588;BME280;34356;45.788;12.046;2022-09-29T02:50:35;98412.20;;;15.94;47.17
47588;BME280;34356;45.788;12.046;2022-09-29T02:53:14;98410.78;;;15.92;47.20
47588;BME280;34356;45.788;12.046;2022-09-29T02:55:53;98404.44;;;16.15;47.18
47588;BME280;34356;45.788;12.046;2022-09-29T02:58:27;98399.89;;;15.71;47.15
47588;BME280;34356;45.788;12.046;2022-09-29T03:00:57;98401.04;;;15.70;47.14
47588;BME280;34356;45.788;12.046;2022-09-29T03:03:25;98403.67;;;15.90;47.12
47588;BME280;34356;45.788;12.046;2022-09-29T03:05:52;98407.14;;;15.87;47.17
47588;BME280;34356;45.788;12.046;2022-09-29T03:08:19;98410.67;;;15.81;47.25
47588;BME280;34356;45.788;12.046;2022-09-29T03:10:46;98407.36;;;15.60;47.21
47588;BME280;34356;45.788;12.046;2022-09-29T03:13:13;98407.48;;;15.82;47.12
47588;BME280;34356;45.788;12.046;2022-09-29T03:15:40;98401.63;;;15.77;47.20
47588;BME280;34356;45.788;12.046;2022-09-29T03:18:07;98400.32;;;15.71;47.27
47588;BME280;34356;45.788;12.046;2022-09-29T03:20:34;98405.41;;;15.91;47.27
47588;BME280;34356;45.788;12.046;2022-09-29T03:23:00;98410.48;;;15.90;47.26
47588;BME280;34356;45.788;12.046;2022-09-29T03:25:27;98412.26;;;15.66;47.27
47588;BME280;34356;45.788;12.046;2022-09-29T03:27:55;98416.25;;;15.64;47.20
47588;BME280;34356;45.788;12.046;2022-09-29T03:30:22;98419.25;;;15.62;47.21
47588;BME280;34356;45.788;12.046;2022-09-29T03:32:49;98424.05;;;15.62;47.18
47588;BME280;34356;45.788;12.046;2022-09-29T03:35:15;98423.41;;;15.54;47.27
47588;BME280;34356;45.788;12.046;2022-09-29T03:37:42;98422.49;;;15.49;47.29
47588;BME280;34356;45.788;12.046;2022-09-29T03:40:09;98430.01;;;15.45;47.35
47588;BME280;34356;45.788;12.046;2022-09-29T03:42:37;98433.61;;;15.42;47.38
47588;BME280;34356;45.788;12.046;2022-09-29T03:45:05;98438.55;;;15.40;47.41
47588;BME280;34356;45.788;12.046;2022-09-29T03:47:32;98433.88;;;15.66;47.41
47588;BME280;34356;45.788;12.046;2022-09-29T03:49:59;98425.93;;;15.50;47.31
47588;BME280;34356;45.788;12.046;2022-09-29T03:52:26;98424.29;;;15.56;47.27
47588;BME280;34356;45.788;12.046;2022-09-29T03:54:53;98426.05;;;15.80;47.17
47588;BME280;34356;45.788;12.046;2022-09-29T03:57:20;98427.72;;;15.71;47.32
47588;BME280;34356;45.788;12.046;2022-09-29T03:59:47;98432.90;;;15.66;47.40
47588;BME280;34356;45.788;12.046;2022-09-29T04:02:14;98435.44;;;15.49;47.30
47588;BME280;34356;45.788;12.046;2022-09-29T04:04:41;98438.28;;;15.54;47.28
47588;BME280;34356;45.788;12.046;2022-09-29T04:07:08;98444.11;;;15.60;47.18
47588;BME280;34356;45.788;12.046;2022-09-29T04:09:34;98441.62;;;15.56;47.25
47588;BME280;34356;45.788;12.046;2022-09-29T04:12:01;98440.81;;;15.34;47.26
47588;BME280;34356;45.788;12.046;2022-09-29T04:14:28;98431.98;;;15.53;47.31
47588;BME280;34356;45.788;12.046;2022-09-29T04:16:55;98426.66;;;15.54;47.30
47588;BME280;34356;45.788;12.046;2022-09-29T04:19:23;98423.89;;;15.58;47.33
47588;BME280;34356;45.788;12.046;2022-09-29T04:21:50;98418.67;;;15.88;47.24
47588;BME280;34356;45.788;12.046;2022-09-29T04:24:17;98417.93;;;15.72;47.13
47588;BME280;34356;45.788;12.046;2022-09-29T04:26:44;98420.44;;;15.98;47.10
47588;BME280;34356;45.788;12.046;2022-09-29T04:29:11;98423.57;;;15.78;47.11
47588;BME280;34356;45.788;12.046;2022-09-29T04:31:37;98425.12;;;15.85;46.99
47588;BME280;34356;45.788;12.046;2022-09-29T04:34:04;98425.09;;;15.76;47.06
47588;BME280;34356;45.788;12.046;2022-09-29T04:36:31;98429.01;;;15.91;47.16
47588;BME280;34356;45.788;12.046;2022-09-29T04:38:58;98428.32;;;15.67;47.19
47588;BME280;34356;45.788;12.046;2022-09-29T04:41:25;98423.65;;;15.89;47.15
47588;BME280;34356;45.788;12.046;2022-09-29T04:43:52;98422.30;;;15.63;47.21
47588;BME280;34356;45.788;12.046;2022-09-29T04:46:20;98419.01;;;15.62;47.24
47588;BME280;34356;45.788;12.046;2022-09-29T04:48:47;98415.42;;;15.64;47.21
47588;BME280;34356;45.788;12.046;2022-09-29T04:51:14;98420.41;;;15.64;47.31
47588;BME280;34356;45.788;12.046;2022-09-29T04:53:40;98421.80;;;15.69;47.16
47588;BME280;34356;45.788;12.046;2022-09-29T04:56:07;98421.87;;;15.74;47.14
47588;BME280;34356;45.788;12.046;2022-09-29T04:58:34;98425.60;;;15.59;47.05
47588;BME280;34356;45.788;12.046;2022-09-29T05:01:06;98427.82;;;15.84;47.01
47588;BME280;34356;45.788;12.046;2022-09-29T05:03:34;98434.83;;;15.87;47.00
47588;BME280;34356;45.788;12.046;2022-09-29T05:06:01;98437.64;;;15.67;46.95
47588;BME280;34356;45.788;12.046;2022-09-29T05:08:28;98432.59;;;15.87;46.99
47588;BME280;34356;45.788;12.046;2022-09-29T05:10:56;98426.85;;;15.39;46.94
47588;BME280;34356;45.788;12.046;2022-09-29T05:13:23;98426.93;;;15.37;46.95
47588;BME280;34356;45.788;12.046;2022-09-29T05:15:54;98422.95;;;15.87;46.94
47588;BME280;34356;45.788;12.046;2022-09-29T05:18:21;98430.45;;;16.08;46.97
47588;BME280;34356;45.788;12.046;2022-09-29T05:20:48;98438.29;;;15.91;46.83
47588;BME280;34356;45.788;12.046;2022-09-29T05:23:16;98452.56;;;15.91;46.82
47588;BME280;34356;45.788;12.046;2022-09-29T05:25:44;98460.07;;;15.88;46.91
47588;BME280;34356;45.788;12.046;2022-09-29T05:28:12;98463.55;;;15.90;46.90
47588;BME280;34356;45.788;12.046;2022-09-29T05:30:39;98465.05;;;15.90;46.87
47588;BME280;34356;45.788;12.046;2022-09-29T05:33:07;98468.37;;;15.86;46.93
47588;BME280;34356;45.788;12.046;2022-09-29T05:35:33;98470.50;;;15.85;46.93
47588;BME280;34356;45.788;12.046;2022-09-29T05:38:01;98472.16;;;15.37;46.91
47588;BME280;34356;45.788;12.046;2022-09-29T05:40:28;98474.34;;;16.06;46.97
47588;BME280;34356;45.788;12.046;2022-09-29T05:42:57;98475.49;;;15.59;47.02
47588;BME280;34356;45.788;12.046;2022-09-29T05:45:24;98472.42;;;15.82;46.97
47588;BME280;34356;45.788;12.046;2022-09-29T05:47:52;98470.02;;;15.85;46.96
47588;BME280;34356;45.788;12.046;2022-09-29T05:50:19;98465.92;;;15.85;46.95
47588;BME280;34356;45.788;12.046;2022-09-29T05:52:46;98467.02;;;15.86;46.96
47588;BME280;34356;45.788;12.046;2022-09-29T05:55:14;98468.05;;;15.89;46.92
47588;BME280;34356;45.788;12.046;2022-09-29T05:57:41;98473.04;;;15.91;46.97
47588;BME280;34356;45.788;12.046;2022-09-29T06:00:08;98473.47;;;15.90;47.01
47588;BME280;34356;45.788;12.046;2022-09-29T06:02:35;98475.65;;;15.95;46.96
47588;BME280;34356;45.788;12.046;2022-09-29T06:05:03;98478.82;;;15.45;46.99
47588;BME280;34356;45.788;12.046;2022-09-29T06:07:30;98477.50;;;15.99;46.98
47588;BME280;34356;45.788;12.046;2022-09-29T06:09:57;98476.09;;;15.54;46.95
47588;BME280;34356;45.788;12.046;2022-09-29T06:12:24;98478.16;;;15.86;46.87
47588;BME280;34356;45.788;12.046;2022-09-29T06:14:52;98478.78;;;16.14;46.88
47588;BME280;34356;45.788;12.046;2022-09-29T06:17:20;98478.32;;;16.19;46.88
47588;BME280;34356;45.788;12.046;2022-09-29T06:19:46;98479.31;;;16.25;46.84
47588;BME280;34356;45.788;12.046;2022-09-29T06:22:13;98480.16;;;15.83;46.82
47588;BME280;34356;45.788;12.046;2022-09-29T06:24:40;98485.22;;;16.20;46.75
47588;BME280;34356;45.788;12.046;2022-09-29T06:27:07;98484.55;;;16.00;46.69
47588;BME280;34356;45.788;12.046;2022-09-29T06:29:34;98482.35;;;16.54;46.61
47588;BME280;34356;45.788;12.046;2022-09-29T06:32:01;98479.21;;;16.08;46.53
47588;BME280;34356;45.788;12.046;2022-09-29T06:34:28;98472.66;;;16.61;46.53
47588;BME280;34356;45.788;12.046;2022-09-29T06:36:56;98465.99;;;16.19;46.47
47588;BME280;34356;45.788;12.046;2022-09-29T06:39:23;98467.17;;;16.23;46.45
47588;BME280;34356;45.788;12.046;2022-09-29T06:41:50;98465.46;;;16.56;46.40
47588;BME280;34356;45.788;12.046;2022-09-29T06:44:18;98463.13;;;16.34;46.37
47588;BME280;34356;45.788;12.046;2022-09-29T06:46:46;98463.06;;;16.88;46.40
47588;BME280;34356;45.788;12.046;2022-09-29T06:49:14;98462.71;;;16.74;46.32
47588;BME280;34356;45.788;12.046;2022-09-29T06:51:41;98460.57;;;16.53;46.34
47588;BME280;34356;45.788;12.046;2022-09-29T06:54:09;98456.64;;;16.57;46.41
47588;BME280;34356;45.788;12.046;2022-09-29T06:56:36;98456.98;;;16.93;46.24
47588;BME280;34356;45.788;12.046;2022-09-29T06:59:03;98466.26;;;16.68;46.24
47588;BME280;34356;45.788;12.046;2022-09-29T07:01:31;98470.53;;;16.98;46.28
47588;BME280;34356;45.788;12.046;2022-09-29T07:03:58;98476.78;;;16.28;46.27
47588;BME280;34356;45.788;12.046;2022-09-29T07:06:25;98476.28;;;16.83;46.21
47588;BME280;34356;45.788;12.046;2022-09-29T07:08:54;98473.64;;;17.35;46.19
47588;BME280;34356;45.788;12.046;2022-09-29T07:11:21;98475.27;;;16.90;46.16
47588;BME280;34356;45.788;12.046;2022-09-29T07:13:49;98472.02;;;16.94;46.11
47588;BME280;34356;45.788;12.046;2022-09-29T07:16:16;98470.27;;;16.95;46.12
47588;BME280;34356;45.788;12.046;2022-09-29T07:18:44;98470.76;;;17.23;46.12
47588;BME280;34356;45.788;12.046;2022-09-29T07:21:13;98473.39;;;17.00;46.09
47588;BME280;34356;45.788;12.046;2022-09-29T07:23:40;98480.37;;;17.06;46.01
47588;BME280;34356;45.788;12.046;2022-09-29T07:26:08;98489.86;;;16.87;45.96
47588;BME280;34356;45.788;12.046;2022-09-29T07:28:35;98494.85;;;17.14;45.93
47588;BME280;34356;45.788;12.046;2022-09-29T07:31:04;98490.08;;;17.12;45.96
47588;BME280;34356;45.788;12.046;2022-09-29T07:33:32;98490.73;;;17.38;45.96
47588;BME280;34356;45.788;12.046;2022-09-29T07:35:58;98488.20;;;16.63;45.96
47588;BME280;34356;45.788;12.046;2022-09-29T07:38:26;98485.64;;;17.13;45.96
47588;BME280;34356;45.788;12.046;2022-09-29T07:40:53;98482.54;;;17.14;45.99
47588;BME280;34356;45.788;12.046;2022-09-29T07:43:21;98484.92;;;17.21;45.98
47588;BME280;34356;45.788;12.046;2022-09-29T07:45:49;98489.48;;;17.27;45.96
47588;BME280;34356;45.788;12.046;2022-09-29T07:48:17;98498.65;;;17.30;45.92
47588;BME280;34356;45.788;12.046;2022-09-29T07:50:44;98511.02;;;17.32;45.95
47588;BME280;34356;45.788;12.046;2022-09-29T07:53:12;98512.28;;;17.36;45.84
47588;BME280;34356;45.788;12.046;2022-09-29T07:55:39;98507.80;;;17.29;45.87
47588;BME280;34356;45.788;12.046;2022-09-29T07:58:07;98510.27;;;17.19;45.96
47588;BME280;34356;45.788;12.046;2022-09-29T08:00:34;98514.26;;;17.16;46.02
47588;BME280;34356;45.788;12.046;2022-09-29T08:03:03;98520.40;;;17.14;46.16
47588;BME280;34356;45.788;12.046;2022-09-29T08:05:31;98520.10;;;17.13;46.25
47588;BME280;34356;45.788;12.046;2022-09-29T08:07:58;98518.05;;;17.12;46.35
47588;BME280;34356;45.788;12.046;2022-09-29T08:10:26;98519.96;;;17.09;46.45
47588;BME280;34356;45.788;12.046;2022-09-29T08:12:54;98520.94;;;17.13;46.40
47588;BME280;34356;45.788;12.046;2022-09-29T08:15:21;98521.10;;;17.12;46.42
47588;BME280;34356;45.788;12.046;2022-09-29T08:17:51;98515.12;;;17.13;46.47
47588;BME280;34356;45.788;12.046;2022-09-29T08:20:18;98507.98;;;17.06;46.58
47588;BME280;34356;45.788;12.046;2022-09-29T08:22:45;98497.02;;;17.22;46.68
47588;BME280;34356;45.788;12.046;2022-09-29T08:25:11;98488.23;;;16.81;46.86
47588;BME280;34356;45.788;12.046;2022-09-29T08:27:38;98490.13;;;16.69;47.09
47588;BME280;34356;45.788;12.046;2022-09-29T08:30:06;98511.86;;;16.84;47.33
47588;BME280;34356;45.788;12.046;2022-09-29T08:32:34;98536.53;;;16.55;47.45
47588;BME280;34356;45.788;12.046;2022-09-29T08:35:00;98559.85;;;16.61;47.48
47588;BME280;34356;45.788;12.046;2022-09-29T08:37:27;98570.45;;;16.91;47.40
47588;BME280;34356;45.788;12.046;2022-09-29T08:39:55;98573.37;;;16.62;47.55
47588;BME280;34356;45.788;12.046;2022-09-29T08:42:27;98582.59;;;16.60;47.48
47588;BME280;34356;45.788;12.046;2022-09-29T08:44:57;98588.24;;;16.54;47.65
47588;BME280;34356;45.788;12.046;2022-09-29T08:47:28;98586.12;;;16.40;47.85
47588;BME280;34356;45.788;12.046;2022-09-29T08:49:59;98575.83;;;16.29;48.03
47588;BME280;34356;45.788;12.046;2022-09-29T08:52:30;98574.55;;;16.65;48.41
47588;BME280;34356;45.788;12.046;2022-09-29T08:55:05;98569.25;;;16.06;48.78
47588;BME280;34356;45.788;12.046;2022-09-29T08:57:38;98562.22;;;16.57;48.74
47588;BME280;34356;45.788;12.046;2022-09-29T09:00:09;98554.54;;;16.35;48.84
47588;BME280;34356;45.788;12.046;2022-09-29T09:02:55;98557.77;;;16.37;48.65
47588;BME280;34356;45.788;12.046;2022-09-29T09:05:38;98564.85;;;16.37;48.95
47588;BME280;34356;45.788;12.046;2022-09-29T09:08:16;98566.93;;;16.54;49.05
47588;BME280;34356;45.788;12.046;2022-09-29T09:10:54;98573.63;;;16.38;49.39
47588;BME280;34356;45.788;12.046;2022-09-29T09:13:40;98584.11;;;16.30;49.44
47588;BME280;34356;45.788;12.046;2022-09-29T09:16:20;98588.99;;;16.28;49.65
47588;BME280;34356;45.788;12.046;2022-09-29T09:19:02;98595.71;;;16.00;49.81
47588;BME280;34356;45.788;12.046;2022-09-29T09:21:40;98596.54;;;16.28;49.89
47588;BME280;34356;45.788;12.046;2022-09-29T09:24:15;98592.31;;;16.17;49.99
47588;BME280;34356;45.788;12.046;2022-09-29T09:26:43;98582.14;;;16.24;49.74
47588;BME280;34356;45.788;12.046;2022-09-29T09:29:17;98572.68;;;16.52;49.65
47588;BME280;34356;45.788;12.046;2022-09-29T09:31:50;98575.67;;;16.44;49.77
47588;BME280;34356;45.788;12.046;2022-09-29T09:34:26;98572.54;;;16.14;49.95
47588;BME280;34356;45.788;12.046;2022-09-29T09:36:57;98588.32;;;16.15;49.91
47588;BME280;34356;45.788;12.046;2022-09-29T09:39:30;98621.86;;;16.35;49.97
47588;BME280;34356;45.788;12.046;2022-09-29T09:42:00;98630.07;;;16.35;50.20
47588;BME280;34356;45.788;12.046;2022-09-29T09:44:33;98608.21;;;16.10;50.16
47588;BME280;34356;45.788;12.046;2022-09-29T09:47:05;98594.99;;;16.10;50.46
47588;BME280;34356;45.788;12.046;2022-09-29T09:49:43;98598.65;;;16.21;50.66
47588;BME280;34356;45.788;12.046;2022-09-29T09:52:21;98614.33;;;16.19;50.81
47588;BME280;34356;45.788;12.046;2022-09-29T09:54:52;98616.71;;;16.21;50.76
47588;BME280;34356;45.788;12.046;2022-09-29T09:57:35;98599.48;;;16.29;50.76
47588;BME280;34356;45.788;12.046;2022-09-29T10:00:09;98586.37;;;16.07;50.75
47588;BME280;34356;45.788;12.046;2022-09-29T10:02:43;98593.43;;;16.29;50.86
47588;BME280;34356;45.788;12.046;2022-09-29T10:05:12;98603.77;;;16.11;50.83
47588;BME280;34356;45.788;12.046;2022-09-29T10:07:40;98601.94;;;16.39;50.87
47588;BME280;34356;45.788;12.046;2022-09-29T10:10:15;98592.05;;;16.43;50.83
47588;BME280;34356;45.788;12.046;2022-09-29T10:12:43;98570.34;;;16.28;51.03
47588;BME280;34356;45.788;12.046;2022-09-29T10:15:19;98565.61;;;16.12;50.91
47588;BME280;34356;45.788;12.046;2022-09-29T10:17:57;98569.18;;;16.27;51.12
47588;BME280;34356;45.788;12.046;2022-09-29T10:20:32;98574.18;;;16.49;50.85
47588;BME280;34356;45.788;12.046;2022-09-29T10:23:19;98589.58;;;16.22;50.84
47588;BME280;34356;45.788;12.046;2022-09-29T10:25:53;98585.58;;;17.18;51.38
47588;BME280;34356;45.788;12.046;2022-09-29T10:28:21;98584.40;;;17.10;50.96
47588;BME280;34356;45.788;12.046;2022-09-29T10:30:49;98595.57;;;17.18;50.85
47588;BME280;34356;45.788;12.046;2022-09-29T10:33:17;98596.14;;;17.23;50.46
47588;BME280;34356;45.788;12.046;2022-09-29T10:35:48;98594.24;;;17.22;50.66
47588;BME280;34356;45.788;12.046;2022-09-29T10:38:17;98590.84;;;17.18;50.67
47588;BME280;34356;45.788;12.046;2022-09-29T10:40:57;98581.41;;;17.41;50.74
47588;BME280;34356;45.788;12.046;2022-09-29T10:43:31;98572.45;;;17.09;50.83
47588;BME280;34356;45.788;12.046;2022-09-29T10:46:01;98576.64;;;16.83;51.14
47588;BME280;34356;45.788;12.046;2022-09-29T10:48:28;98580.46;;;17.13;51.35
47588;BME280;34356;45.788;12.046;2022-09-29T10:50:57;98578.01;;;16.94;51.34
47588;BME280;34356;45.788;12.046;2022-09-29T10:53:33;98571.93;;;17.18;51.17
47588;BME280;34356;45.788;12.046;2022-09-29T10:56:07;98567.65;;;17.20;51.17
47588;BME280;34356;45.788;12.046;2022-09-29T10:58:38;98565.61;;;17.27;51.23
47588;BME280;34356;45.788;12.046;2022-09-29T11:01:09;98569.37;;;17.18;51.02
47588;BME280;34356;45.788;12.046;2022-09-29T11:03:38;98574.99;;;17.53;50.95
47588;BME280;34356;45.788;12.046;2022-09-29T11:06:09;98575.13;;;17.59;51.28
47588;BME280;34356;45.788;12.046;2022-09-29T11:08:57;98572.89;;;17.45;50.97
47588;BME280;34356;45.788;12.046;2022-09-29T11:11:27;98573.29;;;17.68;50.93
47588;BME280;34356;45.788;12.046;2022-09-29T11:13:55;98579.17;;;17.78;51.25
47588;BME280;34356;45.788;12.046;2022-09-29T11:16:27;98579.95;;;17.85;51.57
47588;BME280;34356;45.788;12.046;2022-09-29T11:18:59;98578.17;;;17.75;51.29
47588;BME280;34356;45.788;12.046;2022-09-29T11:23:58;98570.93;;;18.11;51.14
47588;BME280;34356;45.788;12.046;2022-09-29T11:26:32;98571.66;;;17.97;50.58
47588;BME280;34356;45.788;12.046;2022-09-29T11:29:15;98569.08;;;18.19;50.35
47588;BME280;34356;45.788;12.046;2022-09-29T11:31:57;98565.13;;;18.31;49.88
47588;BME280;34356;45.788;12.046;2022-09-29T11:34:39;98562.84;;;18.36;49.53
47588;BME280;34356;45.788;12.046;2022-09-29T11:37:20;98559.76;;;18.46;49.09
47588;BME280;34356;45.788;12.046;2022-09-29T11:40:00;98555.89;;;18.65;48.93
47588;BME280;34356;45.788;12.046;2022-09-29T11:42:43;98551.85;;;18.64;48.72
47588;BME280;34356;45.788;12.046;2022-09-29T11:45:15;98547.08;;;19.01;48.37
47588;BME280;34356;45.788;12.046;2022-09-29T11:48:04;98544.75;;;18.82;48.31
47588;BME280;34356;45.788;12.046;2022-09-29T11:50:40;98540.39;;;19.06;48.03
47588;BME280;34356;45.788;12.046;2022-09-29T11:53:22;98540.27;;;18.89;48.06
47588;BME280;34356;45.788;12.046;2022-09-29T11:56:07;98533.83;;;18.80;47.83
47588;BME280;34356;45.788;12.046;2022-09-29T11:58:49;98531.80;;;19.12;47.14
47588;BME280;34356;45.788;12.046;2022-09-29T12:01:28;98529.54;;;19.10;46.83
47588;BME280;34356;45.788;12.046;2022-09-29T12:04:12;98531.18;;;19.41;46.83
47588;BME280;34356;45.788;12.046;2022-09-29T12:06:52;98530.37;;;19.53;46.59
47588;BME280;34356;45.788;12.046;2022-09-29T12:09:39;98523.96;;;19.20;45.91
47588;BME280;34356;45.788;12.046;2022-09-29T12:12:15;98525.49;;;19.40;45.96
47588;BME280;34356;45.788;12.046;2022-09-29T12:14:58;98517.67;;;19.63;45.58
47588;BME280;34356;45.788;12.046;2022-09-29T12:17:29;98514.30;;;19.82;45.60
47588;BME280;34356;45.788;12.046;2022-09-29T12:20:03;98516.80;;;19.40;45.39
47588;BME280;34356;45.788;12.046;2022-09-29T12:22:32;98517.53;;;19.96;45.35
47588;BME280;34356;45.788;12.046;2022-09-29T12:25:00;98521.62;;;19.59;45.18
47588;BME280;34356;45.788;12.046;2022-09-29T12:27:33;98519.49;;;20.27;44.38
47588;BME280;34356;45.788;12.046;2022-09-29T12:30:12;98517.11;;;20.12;44.44
47588;BME280;34356;45.788;12.046;2022-09-29T12:32:43;98511.41;;;20.17;44.31
47588;BME280;34356;45.788;12.046;2022-09-29T12:35:17;98513.79;;;20.20;44.10
47588;BME280;34356;45.788;12.046;2022-09-29T12:37:50;98515.19;;;20.22;44.13
47588;BME280;34356;45.788;12.046;2022-09-29T12:40:23;98523.89;;;20.18;44.22
47588;BME280;34356;45.788;12.046;2022-09-29T12:43:01;98525.48;;;20.27;44.25
47588;BME280;34356;45.788;12.046;2022-09-29T12:45:34;98525.04;;;20.40;43.90
47588;BME280;34356;45.788;12.046;2022-09-29T12:48:16;98521.52;;;20.25;43.91
47588;BME280;34356;45.788;12.046;2022-09-29T12:50:51;98523.07;;;20.39;43.96
47588;BME280;34356;45.788;12.046;2022-09-29T12:53:23;98529.05;;;20.61;43.93
47588;BME280;34356;45.788;12.046;2022-09-29T12:55:55;98533.41;;;20.82;43.94
47588;BME280;34356;45.788;12.046;2022-09-29T12:58:31;98538.36;;;21.07;43.81
47588;BME280;34356;45.788;12.046;2022-09-29T13:01:11;98544.15;;;20.82;43.55
47588;BME280;34356;45.788;12.046;2022-09-29T13:04:24;98541.62;;;21.54;43.19
47588;BME280;34356;45.788;12.046;2022-09-29T13:09:29;98541.08;;;21.97;43.26
47588;BME280;34356;45.788;12.046;2022-09-29T13:12:10;98537.79;;;21.68;42.61
47588;BME280;34356;45.788;12.046;2022-09-29T13:14:59;98536.89;;;21.87;42.36
47588;BME280;34356;45.788;12.046;2022-09-29T13:17:46;98538.17;;;21.82;41.93